Time;durP1;ratioP1;P1;durP2;ratioP2;P2;SDS_P1;SDS_P2;PMS_P1;PMS_P2;Temp;Humidity;BMP_temperature;BMP_pressure;BME280_temperature;BME280_humidity;BME280_pressure;Samples;Min_cycle;Max_cycle;Signal;HPM_P1;HPM_P2
2022/08/25 00:01:50;;;;;;;3.83;2.20;;;;;;;26.20;21.69;101277.28;5048887;28;20102;-72
2022/08/25 00:04:19;;;;;;;3.08;2.28;;;;;;;26.17;21.77;101270.19;5048483;28;20055;-73
2022/08/25 00:06:49;;;;;;;3.20;2.00;;;;;;;26.18;21.99;101271.91;5050194;28;20048;-72
2022/08/25 00:09:19;;;;;;;3.25;2.40;;;;;;;26.21;22.04;101270.59;5048793;28;20041;-72
2022/08/25 00:11:50;;;;;;;3.88;2.10;;;;;;;26.20;21.94;101275.34;5049880;28;20045;-72
2022/08/25 00:14:20;;;;;;;3.92;2.25;;;;;;;26.19;21.96;101268.00;5049019;28;20045;-72
2022/08/25 00:16:49;;;;;;;3.85;2.50;;;;;;;26.17;21.99;101272.13;5048250;28;20052;-72
2022/08/25 00:19:20;;;;;;;3.30;2.22;;;;;;;26.18;21.99;101276.66;5049557;28;20416;-72
2022/08/25 00:21:48;;;;;;;4.57;2.45;;;;;;;26.12;22.02;101260.72;5050305;28;20076;-72
2022/08/25 00:24:19;;;;;;;3.25;2.28;;;;;;;26.14;22.04;101265.00;5047726;28;20061;-72
2022/08/25 00:26:51;;;;;;;3.97;2.42;;;;;;;26.13;22.02;101270.88;5049111;28;20128;-72
2022/08/25 00:29:20;;;;;;;4.40;2.40;;;;;;;26.08;21.89;101271.53;5048709;28;20079;-72
2022/08/25 00:31:48;;;;;;;4.78;2.30;;;;;;;26.07;21.97;101266.16;5050122;28;20045;-72
2022/08/25 00:34:20;;;;;;;3.38;2.40;;;;;;;26.08;22.05;101274.34;5048606;28;20103;-72
2022/08/25 00:36:49;;;;;;;4.60;2.45;;;;;;;26.04;21.91;101264.66;5049373;28;20102;-72
2022/08/25 00:39:19;;;;;;;3.63;2.35;;;;;;;26.01;22.08;101279.13;5049239;28;20048;-72
2022/08/25 00:41:48;;;;;;;3.10;2.15;;;;;;;25.97;22.19;101275.88;5049227;28;20120;-72
2022/08/25 00:44:18;;;;;;;4.15;2.35;;;;;;;25.95;22.13;101275.28;5048992;28;20053;-72
2022/08/25 00:46:49;;;;;;;4.43;2.45;;;;;;;25.93;22.06;101285.00;5048409;28;20045;-72
2022/08/25 00:49:20;;;;;;;3.60;2.22;;;;;;;25.89;21.93;101278.09;5047863;28;20524;-72
2022/08/25 00:51:58;;;;;;;3.55;2.20;;;;;;;25.87;22.28;101281.16;5048415;28;20139;-71
2022/08/25 00:54:28;;;;;;;3.38;2.20;;;;;;;25.81;22.39;101279.22;5049024;28;20505;-72
2022/08/25 00:56:59;;;;;;;3.42;2.25;;;;;;;25.80;22.33;101282.28;5049695;28;20037;-72
2022/08/25 00:59:29;;;;;;;2.90;2.00;;;;;;;25.77;22.08;101289.19;5047370;28;20382;-72
2022/08/25 01:01:58;;;;;;;2.92;2.20;;;;;;;25.73;22.29;101279.50;5048658;28;20045;-72
2022/08/25 01:04:26;;;;;;;3.78;2.42;;;;;;;25.71;22.43;101278.03;5047046;28;20041;-72
2022/08/25 01:06:55;;;;;;;4.07;2.20;;;;;;;25.67;22.53;101277.59;5046867;28;20592;-72
2022/08/25 01:09:31;;;;;;;3.80;2.13;;;;;;;25.66;22.37;101272.22;5046953;28;20037;-72
2022/08/25 01:12:00;;;;;;;3.60;2.20;;;;;;;25.63;22.45;101279.16;5047021;28;20041;-71
2022/08/25 01:14:32;;;;;;;3.47;2.10;;;;;;;25.63;22.54;101276.34;5062221;28;20107;-71
2022/08/25 01:17:00;;;;;;;3.40;2.20;;;;;;;25.57;22.62;101277.22;5043139;28;20045;-72
2022/08/25 01:19:32;;;;;;;3.00;2.20;;;;;;;25.58;22.74;101277.00;5093924;22;20381;-71
2022/08/25 01:22:01;;;;;;;3.70;2.22;;;;;;;25.54;22.67;101284.16;5094023;28;20048;-71
2022/08/25 01:24:38;;;;;;;3.40;2.53;;;;;;;25.54;22.69;101281.34;5090614;27;20072;-72
2022/08/25 01:27:07;;;;;;;5.10;2.22;;;;;;;25.50;22.68;101279.16;5095276;28;20132;-71
2022/08/25 01:29:35;;;;;;;3.70;2.38;;;;;;;25.47;22.76;101286.06;5066852;28;20041;-71
2022/08/25 01:32:07;;;;;;;5.22;2.60;;;;;;;25.45;22.91;101284.59;5066792;28;20048;-72
2022/08/25 01:34:39;;;;;;;3.65;2.35;;;;;;;25.41;22.83;101288.91;5077567;28;20050;-71
2022/08/25 01:37:10;;;;;;;3.45;2.30;;;;;;;25.38;22.79;101284.63;5075921;28;20076;-71
2022/08/25 01:39:41;;;;;;;3.60;2.25;;;;;;;25.35;23.12;101287.84;5054838;28;20047;-71
2022/08/25 01:42:23;;;;;;;4.65;2.30;;;;;;;25.34;23.04;101288.94;5063008;28;20047;-71
2022/08/25 01:44:51;;;;;;;3.67;2.30;;;;;;;25.25;22.87;101279.06;5065102;28;20037;-71
2022/08/25 01:47:19;;;;;;;4.03;2.47;;;;;;;25.25;23.02;101285.53;5060270;28;20052;-71
2022/08/25 01:49:47;;;;;;;3.70;2.42;;;;;;;25.22;23.26;101282.31;5061967;28;20129;-71
2022/08/25 01:52:20;;;;;;;3.40;2.60;;;;;;;25.23;23.41;101281.22;5077716;28;20043;-72
2022/08/25 01:54:48;;;;;;;4.88;2.63;;;;;;;25.17;23.19;101288.56;5070049;28;20046;-72
2022/08/25 01:57:17;;;;;;;4.35;2.40;;;;;;;25.15;23.22;101279.50;5059042;28;20497;-72
2022/08/25 01:59:46;;;;;;;3.03;2.25;;;;;;;25.12;23.38;101273.50;5053162;28;20048;-73
2022/08/25 02:02:14;;;;;;;2.83;2.30;;;;;;;25.09;23.33;101279.53;5052371;28;20048;-71
2022/08/25 02:04:46;;;;;;;4.25;2.55;;;;;;;25.06;23.36;101280.84;5056009;28;20909;-71
2022/08/25 02:07:14;;;;;;;3.90;2.60;;;;;;;25.03;23.46;101278.50;5072006;28;20041;-73
2022/08/25 02:09:44;;;;;;;5.03;2.55;;;;;;;25.02;23.88;101282.38;5062186;28;20428;-74
2022/08/25 02:12:12;;;;;;;3.30;2.35;;;;;;;24.98;23.65;101283.88;5077585;28;20044;-72
2022/08/25 02:14:40;;;;;;;4.57;2.65;;;;;;;24.93;23.93;101278.06;5078169;28;20056;-73
2022/08/25 02:17:10;;;;;;;4.95;2.58;;;;;;;24.91;23.65;101283.00;5056131;28;20029;-72
2022/08/25 02:19:38;;;;;;;4.35;2.63;;;;;;;24.86;23.85;101283.66;5068665;28;20521;-71
2022/08/25 02:22:06;;;;;;;3.85;2.80;;;;;;;24.82;23.79;101275.91;5068035;28;20106;-71
2022/08/25 02:24:34;;;;;;;4.97;2.67;;;;;;;24.78;24.02;101275.50;5072217;28;20072;-71
2022/08/25 02:27:04;;;;;;;3.95;2.70;;;;;;;24.77;24.29;101282.19;5065187;28;20052;-71
2022/08/25 02:29:32;;;;;;;5.13;2.70;;;;;;;24.72;24.24;101275.53;5065089;28;20040;-71
2022/08/25 02:32:01;;;;;;;4.53;2.65;;;;;;;24.69;24.05;101288.00;5065263;28;20047;-71
2022/08/25 02:34:29;;;;;;;3.90;2.70;;;;;;;24.66;24.18;101276.38;5048795;28;20052;-71
2022/08/25 02:36:57;;;;;;;4.60;2.65;;;;;;;24.63;24.41;101274.88;5077116;28;20404;-71
2022/08/25 02:39:25;;;;;;;4.80;2.90;;;;;;;24.59;24.49;101270.78;5071330;28;20049;-71
2022/08/25 02:41:53;;;;;;;4.30;2.38;;;;;;;24.55;24.53;101272.31;5067345;28;20051;-71
2022/08/25 02:44:22;;;;;;;4.30;2.63;;;;;;;24.54;24.60;101276.19;5069486;28;20056;-71
2022/08/25 02:46:50;;;;;;;4.05;2.60;;;;;;;24.47;24.55;101270.59;5070960;28;20040;-70
2022/08/25 02:49:18;;;;;;;4.75;2.78;;;;;;;24.44;24.81;101268.22;5058420;28;20044;-71
2022/08/25 02:51:46;;;;;;;5.43;2.72;;;;;;;24.42;24.68;101269.50;5060647;28;20043;-71
2022/08/25 02:54:14;;;;;;;4.28;2.80;;;;;;;24.39;24.99;101273.63;5061606;28;20492;-71
2022/08/25 02:56:42;;;;;;;4.72;2.60;;;;;;;24.35;24.63;101263.94;5064123;28;20041;-71
2022/08/25 02:59:11;;;;;;;5.28;2.92;;;;;;;24.32;24.82;101261.50;5053607;28;20139;-71
2022/08/25 03:01:40;;;;;;;5.18;2.80;;;;;;;24.32;25.08;101255.09;5056693;28;20047;-71
2022/08/25 03:04:08;;;;;;;5.05;2.97;;;;;;;24.27;25.00;101255.72;5075578;28;20505;-71
2022/08/25 03:06:36;;;;;;;5.10;2.88;;;;;;;24.23;25.26;101248.84;5070192;28;20064;-70
2022/08/25 03:09:04;;;;;;;3.65;2.53;;;;;;;24.20;25.11;101242.81;5060682;28;20152;-71
2022/08/25 03:11:32;;;;;;;3.72;2.55;;;;;;;24.18;25.21;101244.94;5061038;28;20036;-72
2022/08/25 03:14:00;;;;;;;5.55;2.83;;;;;;;24.14;25.20;101244.53;5066664;28;20048;-71
2022/08/25 03:16:28;;;;;;;4.38;2.80;;;;;;;24.11;25.41;101242.16;5072183;28;20139;-71
2022/08/25 03:18:58;;;;;;;4.20;2.55;;;;;;;24.08;25.64;101237.84;5060764;28;20445;-71
2022/08/25 03:21:28;;;;;;;4.07;2.83;;;;;;;24.04;25.55;101244.09;5060573;28;20048;-71
2022/08/25 03:23:56;;;;;;;5.35;2.78;;;;;;;23.98;25.96;101233.78;5050168;28;20052;-70
2022/08/25 03:29:10;;;;;;;5.10;2.75;;;;;;;23.90;25.77;101242.38;5062053;28;20044;-70
2022/08/25 03:31:38;;;;;;;4.38;2.33;;;;;;;23.86;26.12;101233.53;5074063;28;20050;-70
2022/08/25 03:34:08;;;;;;;5.30;2.38;;;;;;;23.86;26.04;101235.47;5064695;28;20053;-71
2022/08/25 03:36:36;;;;;;;3.58;2.80;;;;;;;23.80;26.10;101234.41;5065527;28;20047;-71
2022/08/25 03:39:07;;;;;;;3.70;2.50;;;;;;;23.79;26.74;101237.41;5064428;28;20059;-71
2022/08/25 03:41:35;;;;;;;4.60;2.63;;;;;;;23.74;26.60;101230.47;5073831;28;20501;-70
2022/08/25 03:44:05;;;;;;;6.50;2.72;;;;;;;23.70;26.93;101234.78;5064091;28;20064;-71
2022/08/25 03:46:35;;;;;;;6.13;2.60;;;;;;;23.68;26.67;101233.25;5061511;28;20056;-71
2022/08/25 03:49:04;;;;;;;5.57;2.70;;;;;;;23.64;27.09;101229.19;5056183;28;20440;-71
2022/08/25 03:51:36;;;;;;;6.68;3.03;;;;;;;23.62;27.37;101239.69;5063469;28;20247;-71
2022/08/25 03:54:05;;;;;;;5.97;2.90;;;;;;;23.55;27.04;101238.81;5059803;28;20049;-71
2022/08/25 03:56:33;;;;;;;5.55;3.05;;;;;;;23.53;27.54;101235.38;5056623;28;20068;-71
2022/08/25 03:59:01;;;;;;;4.50;2.90;;;;;;;23.50;27.57;101233.84;5066463;28;20048;-71
2022/08/25 04:01:29;;;;;;;5.72;3.05;;;;;;;23.47;27.40;101225.91;5060299;28;20170;-71
2022/08/25 04:03:57;;;;;;;5.00;2.75;;;;;;;23.44;27.50;101223.53;5066562;28;20060;-71
2022/08/25 04:06:25;;;;;;;4.45;3.03;;;;;;;23.41;27.51;101215.59;5055980;28;20041;-70
2022/08/25 04:08:54;;;;;;;5.90;2.95;;;;;;;23.41;28.05;101206.34;5064784;28;20110;-72
2022/08/25 04:11:23;;;;;;;4.07;2.90;;;;;;;23.36;27.87;101198.56;5066075;28;20066;-72
2022/08/25 04:13:52;;;;;;;5.65;2.97;;;;;;;23.33;27.78;101193.44;5058746;28;20041;-72
2022/08/25 04:16:23;;;;;;;4.78;2.90;;;;;;;23.29;27.91;101195.78;5065171;28;20067;-72
2022/08/25 04:18:53;;;;;;;5.10;2.80;;;;;;;23.26;28.13;101196.19;5066795;28;20044;-72
2022/08/25 04:21:22;;;;;;;5.28;2.65;;;;;;;23.23;27.85;101196.63;5069821;28;20072;-70
2022/08/25 04:23:52;;;;;;;4.90;2.88;;;;;;;23.21;28.09;101203.47;5066199;28;20413;-71
2022/08/25 04:26:24;;;;;;;3.55;2.65;;;;;;;23.20;28.35;101204.53;5059815;28;20179;-71
2022/08/25 04:28:53;;;;;;;4.75;2.88;;;;;;;23.16;28.16;101203.25;5066279;28;20040;-71
2022/08/25 04:31:22;;;;;;;4.05;2.85;;;;;;;23.13;28.30;101207.28;5066581;28;20128;-71
2022/08/25 04:33:50;;;;;;;4.07;3.03;;;;;;;23.12;28.37;101208.34;5087166;28;20402;-70
2022/08/25 04:36:20;;;;;;;5.05;2.85;;;;;;;23.12;28.45;101210.28;5071780;28;20501;-70
2022/08/25 04:38:49;;;;;;;5.93;3.20;;;;;;;23.11;28.58;101205.75;5059303;28;20525;-71
2022/08/25 04:41:21;;;;;;;4.93;2.92;;;;;;;23.10;28.57;101210.47;5068074;28;20048;-71
2022/08/25 04:43:50;;;;;;;4.93;2.95;;;;;;;23.05;28.66;101207.47;5068998;28;20044;-71
2022/08/25 04:46:21;;;;;;;4.85;2.90;;;;;;;23.09;28.52;101211.53;5064450;28;20116;-71
2022/08/25 04:48:50;;;;;;;3.70;2.78;;;;;;;23.06;28.70;101209.19;5058175;28;20101;-71
2022/08/25 04:51:22;;;;;;;3.85;2.80;;;;;;;23.07;28.66;101207.25;5064868;28;20047;-72
2022/08/25 04:53:51;;;;;;;5.15;3.10;;;;;;;23.03;28.95;101209.59;5071189;28;20044;-72
2022/08/25 04:56:24;;;;;;;4.38;2.85;;;;;;;23.05;28.92;101204.69;5067209;28;20041;-72
2022/08/25 04:58:53;;;;;;;3.92;2.90;;;;;;;23.02;28.55;101210.66;5055613;28;20041;-72
2022/08/25 05:01:24;;;;;;;5.38;3.10;;;;;;;23.01;28.71;101208.94;5058930;28;20032;-71
2022/08/25 05:03:54;;;;;;;6.35;3.17;;;;;;;22.99;28.90;101203.59;5065244;28;20044;-71
2022/08/25 05:06:23;;;;;;;4.60;3.30;;;;;;;22.96;28.75;101203.13;5065489;28;20504;-72
2022/08/25 05:08:51;;;;;;;4.80;3.10;;;;;;;22.94;28.97;101197.75;5061860;28;20044;-72
2022/08/25 05:11:21;;;;;;;4.10;2.90;;;;;;;22.95;29.03;101201.41;5062995;28;20052;-73
2022/08/25 05:13:52;;;;;;;3.97;3.08;;;;;;;22.93;29.17;101195.16;5065753;28;20058;-72
2022/08/25 05:16:21;;;;;;;3.60;2.70;;;;;;;22.92;28.89;101207.41;5054934;28;20053;-71
2022/08/25 05:18:50;;;;;;;4.90;3.00;;;;;;;22.92;29.29;101202.66;5063430;28;20057;-71
2022/08/25 05:21:21;;;;;;;4.75;3.28;;;;;;;22.94;29.62;101208.03;5064308;28;20056;-72
2022/08/25 05:23:49;;;;;;;5.20;3.22;;;;;;;22.90;29.58;101203.97;5061919;28;20045;-71
2022/08/25 05:26:20;;;;;;;5.20;3.22;;;;;;;22.94;29.09;101202.47;5059919;28;20123;-71
2022/08/25 05:28:52;;;;;;;4.73;2.93;;;;;;;22.94;29.77;101197.75;5064798;28;20044;-71
2022/08/25 05:31:22;;;;;;;6.47;3.28;;;;;;;22.94;29.19;101200.53;5066189;28;20164;-71
2022/08/25 05:33:50;;;;;;;4.50;3.33;;;;;;;22.96;29.52;101189.16;5065470;28;20166;-71
2022/08/25 05:36:20;;;;;;;5.55;3.10;;;;;;;22.97;29.50;101190.91;5054362;28;20486;-70
2022/08/25 05:38:48;;;;;;;4.63;3.30;;;;;;;22.95;29.58;101191.09;5066575;28;20799;-72
2022/08/25 05:41:19;;;;;;;6.25;3.20;;;;;;;22.96;29.85;101194.75;5061940;28;20691;-62
2022/08/25 05:43:50;;;;;;;6.63;3.30;;;;;;;22.97;29.70;101190.91;5061811;28;20646;-62
2022/08/25 05:46:20;;;;;;;5.50;3.17;;;;;;;22.96;30.04;101191.97;5065035;28;20033;-63
2022/08/25 05:48:48;;;;;;;4.43;3.33;;;;;;;22.96;29.71;101195.63;5064631;28;20044;-63
2022/08/25 05:51:17;;;;;;;4.72;3.38;;;;;;;22.97;30.01;101197.34;5064931;28;20083;-63
2022/08/25 05:53:48;;;;;;;6.00;3.60;;;;;;;23.00;29.94;101191.31;5060810;28;20048;-63
2022/08/25 05:56:17;;;;;;;5.45;3.05;;;;;;;23.00;30.06;101187.69;5057501;28;20063;-63
2022/08/25 05:58:45;;;;;;;4.75;3.30;;;;;;;23.02;30.27;101186.41;5054696;28;20064;-62
2022/08/25 06:04:12;;;;;;;6.18;3.40;;;;;;;23.03;30.28;101178.88;5060844;28;20528;-60
2022/08/25 06:06:41;;;;;;;5.28;3.72;;;;;;;23.07;29.93;101183.00;5059538;28;20056;-61
2022/08/25 06:09:10;;;;;;;5.15;3.67;;;;;;;23.08;30.47;101175.50;5064401;28;20044;-61
2022/08/25 06:11:40;;;;;;;5.03;3.22;;;;;;;23.11;30.33;101180.63;5062613;28;20044;-65
2022/08/25 06:14:09;;;;;;;5.00;3.35;;;;;;;23.10;30.24;101179.78;5062523;28;20052;-64
2022/08/25 06:16:39;;;;;;;5.95;4.05;;;;;;;23.10;30.69;101187.28;5054680;28;20033;-64
2022/08/25 06:19:08;;;;;;;5.60;3.20;;;;;;;23.11;30.18;101187.09;5055856;28;20063;-64
2022/08/25 06:21:38;;;;;;;4.90;3.55;;;;;;;23.09;30.45;101182.75;5058601;28;20055;-64
2022/08/25 06:24:07;;;;;;;4.63;3.22;;;;;;;23.15;30.65;101193.13;5067238;28;20077;-64
2022/08/25 06:26:42;;;;;;;5.78;3.58;;;;;;;23.15;30.45;101185.59;5064139;28;20767;-63
2022/08/25 06:29:12;;;;;;;4.60;3.28;;;;;;;23.18;30.64;101178.75;5066281;28;20102;-63
2022/08/25 06:31:42;;;;;;;5.50;3.30;;;;;;;23.20;30.73;101188.66;5074114;28;20050;-63
2022/08/25 06:34:10;;;;;;;5.07;3.40;;;;;;;23.22;30.44;101189.31;5067300;28;20079;-64
2022/08/25 06:36:39;;;;;;;5.82;4.00;;;;;;;23.22;31.04;101191.25;5076617;28;20507;-67
2022/08/25 06:39:07;;;;;;;5.22;3.33;;;;;;;23.26;30.83;101187.81;5069927;28;20040;-70
2022/08/25 06:41:37;;;;;;;5.60;3.40;;;;;;;23.31;30.61;101193.63;5052868;28;20127;-69
2022/08/25 06:44:06;;;;;;;6.05;3.50;;;;;;;23.36;30.57;101195.78;5064487;28;20052;-68
2022/08/25 06:46:34;;;;;;;5.30;3.30;;;;;;;23.41;30.49;101196.03;5063460;28;20040;-67
2022/08/25 06:49:06;;;;;;;5.72;3.67;;;;;;;23.47;30.51;101200.78;5060381;28;20051;-69
2022/08/25 06:51:35;;;;;;;5.93;3.30;;;;;;;23.51;30.66;101201.19;5068493;28;20447;-67
2022/08/25 06:54:04;;;;;;;4.72;3.40;;;;;;;23.57;30.70;101201.22;5056313;28;20131;-68
2022/08/25 06:56:32;;;;;;;5.20;3.75;;;;;;;23.65;30.90;101200.16;5060986;28;20083;-67
2022/08/25 06:59:00;;;;;;;4.57;3.35;;;;;;;23.79;30.83;101203.84;5060587;28;20053;-69
2022/08/25 07:01:30;;;;;;;5.38;3.33;;;;;;;23.95;30.70;101207.09;5059307;28;20047;-67
2022/08/25 07:04:00;;;;;;;5.80;3.65;;;;;;;24.15;31.11;101202.34;5071165;28;20106;-67
2022/08/25 07:06:34;;;;;;;4.63;3.45;;;;;;;24.37;30.20;101211.41;5055302;28;20112;-68
2022/08/25 07:09:04;;;;;;;5.65;3.55;;;;;;;24.60;30.15;101210.09;5079967;28;20048;-68
2022/08/25 07:11:33;;;;;;;5.55;3.60;;;;;;;24.86;30.02;101204.41;5048884;28;20160;-68
2022/08/25 07:14:02;;;;;;;5.03;3.40;;;;;;;25.10;29.70;101202.84;5071873;28;20075;-68
2022/08/25 07:16:30;;;;;;;4.55;3.10;;;;;;;25.34;29.37;101204.03;5057623;28;20100;-72
2022/08/25 07:19:01;;;;;;;4.10;3.08;;;;;;;25.57;29.27;101202.41;5075230;22;20036;-82
2022/08/25 07:21:33;;;;;;;3.83;3.20;;;;;;;25.81;29.02;101197.91;5073466;28;20572;-83
2022/08/25 07:24:06;;;;;;;5.35;3.17;;;;;;;26.02;28.60;101196.69;5073921;28;20044;-81
2022/08/25 07:27:00;;;;;;;4.82;3.30;;;;;;;26.18;28.29;101200.91;5082711;28;20531;-80
2022/08/25 07:29:30;;;;;;;4.55;3.03;;;;;;;26.40;28.23;101196.56;5074728;28;20040;-80
2022/08/25 07:32:01;;;;;;;6.38;3.10;;;;;;;26.56;27.94;101201.59;5071135;28;20037;-80
2022/08/25 07:37:22;;;;;;;4.72;3.22;;;;;;;26.95;27.62;101196.66;5069204;28;20471;-81
2022/08/25 07:40:13;;;;;;;6.63;3.50;;;;;;;27.08;27.24;101190.88;5080333;28;20051;-80
2022/08/25 07:42:42;;;;;;;5.63;3.30;;;;;;;27.22;27.21;101191.56;5082518;28;20033;-81
2022/08/25 07:45:12;;;;;;;4.97;3.10;;;;;;;27.38;26.80;101194.59;5075981;28;20402;-81
2022/08/25 07:47:44;;;;;;;5.32;3.10;;;;;;;27.50;26.70;101198.31;5060795;28;20091;-81
2022/08/25 07:50:13;;;;;;;5.20;3.42;;;;;;;27.62;26.46;101191.84;5074025;28;20076;-81
2022/08/25 07:52:43;;;;;;;6.55;3.40;;;;;;;27.73;26.09;101202.31;5074406;28;20040;-80
2022/08/25 07:55:20;;;;;;;4.88;3.17;;;;;;;27.80;26.23;101197.44;5074610;28;20052;-80
2022/08/25 07:57:49;;;;;;;5.35;3.22;;;;;;;27.88;26.02;101202.72;5084218;28;20091;-80
2022/08/25 08:00:21;;;;;;;4.00;3.08;;;;;;;27.97;26.12;101203.25;5067589;28;20033;-80
2022/08/25 08:02:51;;;;;;;5.43;3.50;;;;;;;28.07;25.99;101203.50;5074333;28;20040;-80
2022/08/25 08:05:20;;;;;;;5.00;3.38;;;;;;;28.17;25.59;101201.81;5074636;28;20052;-81
2022/08/25 08:07:52;;;;;;;4.78;3.28;;;;;;;28.29;25.40;101198.16;5063160;28;20040;-81
2022/08/25 08:10:22;;;;;;;5.22;3.30;;;;;;;28.36;25.32;101194.13;5073492;28;20044;-81
2022/08/25 08:13:11;;;;;;;4.57;3.17;;;;;;;28.47;25.41;101198.06;5072340;28;20041;-79
2022/08/25 08:15:45;;;;;;;5.10;3.20;;;;;;;28.57;25.11;101195.50;5078166;28;20517;-81
2022/08/25 08:18:14;;;;;;;4.82;3.10;;;;;;;28.68;25.25;101188.13;5069904;28;20051;-81
2022/08/25 08:20:45;;;;;;;5.10;3.45;;;;;;;28.81;25.04;101191.56;5074528;28;20044;-81
2022/08/25 08:23:15;;;;;;;4.65;3.17;;;;;;;28.93;24.60;101194.38;5073242;28;20098;-79
2022/08/25 08:25:44;;;;;;;4.85;3.47;;;;;;;29.01;25.03;101190.31;5072476;28;20036;-79
2022/08/25 08:28:12;;;;;;;4.47;3.15;;;;;;;29.11;24.83;101182.91;5073636;28;20036;-79
2022/08/25 08:30:41;;;;;;;5.22;3.53;;;;;;;29.23;24.59;101186.59;5068390;28;20044;-80
2022/08/25 08:33:23;;;;;;;5.13;3.38;;;;;;;29.35;24.35;101184.56;5071134;28;20119;-80
2022/08/25 08:36:02;;;;;;;7.78;3.65;;;;;;;29.50;24.04;101183.19;5074617;28;20045;-79
2022/08/25 08:38:34;;;;;;;4.47;3.35;;;;;;;29.59;24.02;101171.22;5081606;28;20399;-82
2022/08/25 08:44:27;;;;;;;4.53;3.50;;;;;;;29.81;23.74;101168.56;5092834;28;20044;-81
2022/08/25 08:47:04;;;;;;;4.97;3.25;;;;;;;29.93;23.27;101162.81;5094797;28;20406;-81
2022/08/25 08:49:44;;;;;;;4.45;3.28;;;;;;;30.01;23.21;101166.06;5071957;28;20044;-82
2022/08/25 08:52:16;;;;;;;4.55;3.08;;;;;;;30.13;22.76;101170.78;5089958;28;20089;-81
2022/08/25 08:54:51;;;;;;;4.35;3.15;;;;;;;30.20;22.94;101163.00;5075043;28;20040;-79
2022/08/25 08:57:25;;;;;;;3.60;3.00;;;;;;;30.31;22.99;101157.28;5073546;28;20049;-80
2022/08/25 08:59:59;;;;;;;4.20;2.97;;;;;;;30.41;22.60;101150.94;5080521;28;20054;-79
2022/08/25 09:02:35;;;;;;;4.53;2.92;;;;;;;30.52;22.62;101143.47;5071999;28;20052;-79
2022/08/25 09:05:20;;;;;;;4.70;3.28;;;;;;;30.60;22.55;101145.84;5073139;28;20056;-79
2022/08/25 09:07:54;;;;;;;5.93;3.60;;;;;;;30.68;22.37;101148.19;5053272;28;20041;-79
2022/08/25 09:10:28;;;;;;;5.13;3.08;;;;;;;30.79;22.65;101136.81;5079767;28;20040;-80
2022/08/25 09:13:05;;;;;;;3.92;3.38;;;;;;;30.88;21.83;101139.19;5092076;28;20082;-83
2022/08/25 09:18:42;;;;;;;4.75;3.10;;;;;;;30.98;21.80;101134.53;5073135;28;20045;-81
2022/08/25 09:21:26;;;;;;;4.43;2.90;;;;;;;31.03;21.33;101128.06;5076163;28;20043;-79
2022/08/25 09:24:26;;;;;;;5.38;3.00;;;;;;;31.02;22.02;101121.56;5082136;28;20044;-80
2022/08/25 09:27:09;;;;;;;4.28;3.20;;;;;;;31.12;21.10;101126.47;5084914;28;20041;-80
2022/08/25 09:29:54;;;;;;;4.57;3.38;;;;;;;31.18;21.50;101128.25;5084978;28;20445;-79
2022/08/25 09:32:22;;;;;;;4.10;3.30;;;;;;;31.21;22.00;101124.94;5077298;28;20074;-79
2022/08/25 09:35:01;;;;;;;4.03;2.95;;;;;;;31.28;21.99;101119.06;5081439;28;20529;-79
2022/08/25 09:37:30;;;;;;;3.50;2.70;;;;;;;31.32;21.93;101125.91;5077197;28;20106;-79
2022/08/25 09:39:59;;;;;;;4.82;3.20;;;;;;;31.42;21.49;101117.50;5081992;28;20621;-80
2022/08/25 09:42:51;;;;;;;4.20;3.42;;;;;;;31.51;21.59;101124.38;5071015;28;20045;-79
2022/08/25 09:45:40;;;;;;;3.75;2.72;;;;;;;31.60;21.54;101117.97;5086343;28;20044;-80
2022/08/25 09:48:24;;;;;;;3.92;2.97;;;;;;;31.69;21.22;101114.69;5083118;28;20257;-79
2022/08/25 09:51:01;;;;;;;4.95;3.55;;;;;;;31.78;21.46;101113.06;5068557;28;20095;-79
2022/08/25 09:53:30;;;;;;;4.07;3.00;;;;;;;31.80;21.19;101110.84;5078286;28;20048;-80
2022/08/25 09:56:30;;;;;;;4.10;2.97;;;;;;;31.85;21.10;101111.72;5083711;28;20041;-79
2022/08/25 09:59:21;;;;;;;4.50;3.00;;;;;;;31.89;21.03;101101.59;5071998;28;20052;-80
2022/08/25 10:02:05;;;;;;;3.72;2.67;;;;;;;31.96;20.62;101099.38;5072373;28;20051;-80
2022/08/25 10:04:36;;;;;;;3.72;2.70;;;;;;;32.00;21.00;101104.47;5071940;28;20050;-79
2022/08/25 10:07:22;;;;;;;3.42;2.63;;;;;;;32.08;20.71;101107.66;5080798;28;20568;-79
2022/08/25 10:09:57;;;;;;;3.90;2.80;;;;;;;32.16;20.26;101100.66;5089030;28;20057;-80
2022/08/25 10:12:34;;;;;;;3.50;2.88;;;;;;;32.22;20.72;101089.09;5072353;28;20521;-79
2022/08/25 10:15:17;;;;;;;4.13;3.28;;;;;;;32.29;20.10;101097.34;5071829;28;20040;-79
2022/08/25 10:18:16;;;;;;;4.63;3.03;;;;;;;32.34;20.85;101089.72;5089208;28;20122;-80
2022/08/25 10:21:01;;;;;;;5.05;2.83;;;;;;;32.46;20.33;101085.84;5079595;28;20045;-80
2022/08/25 10:23:31;;;;;;;3.53;2.67;;;;;;;32.52;20.04;101079.06;5060849;28;20053;-80
2022/08/25 10:26:05;;;;;;;3.92;2.65;;;;;;;32.63;20.27;101080.84;5084753;28;20044;-79
2022/08/25 10:28:43;;;;;;;3.75;2.58;;;;;;;32.72;19.45;101088.53;5071835;28;20047;-80
2022/08/25 10:31:22;;;;;;;3.85;2.70;;;;;;;32.80;19.93;101081.50;5070753;28;20044;-79
2022/08/25 10:34:07;;;;;;;4.30;2.70;;;;;;;32.88;19.99;101078.13;5071035;28;20052;-80
2022/08/25 10:36:45;;;;;;;3.65;2.85;;;;;;;32.96;19.24;101074.75;5082651;28;20048;-79
2022/08/25 10:39:25;;;;;;;3.67;2.78;;;;;;;33.04;19.23;101071.38;5090029;28;20070;-79
2022/08/25 10:42:17;;;;;;;4.07;2.85;;;;;;;33.12;19.02;101063.47;5084211;28;20041;-80
2022/08/25 10:48:15;;;;;;;3.70;2.70;;;;;;;33.22;19.16;101054.97;5065396;28;20057;-79
2022/08/25 10:50:53;;;;;;;4.10;2.78;;;;;;;33.26;18.99;101059.81;5073722;28;20041;-79
2022/08/25 10:53:34;;;;;;;4.07;2.70;;;;;;;33.37;19.46;101057.84;5069537;28;20063;-80
2022/08/25 10:56:15;;;;;;;4.13;2.80;;;;;;;33.44;19.21;101049.91;5072349;28;20048;-79
2022/08/25 10:58:54;;;;;;;;;;;;;;;33.15;19.79;101048.72;5067274;28;20086;-79
2022/08/25 11:01:36;;;;;;;3.63;2.47;;;;;;;33.52;18.20;101038.03;5076227;28;19924;-79
2022/08/25 11:04:15;;;;;;;3.40;2.33;;;;;;;33.61;18.52;101033.47;5068263;28;20060;-79
2022/08/25 11:06:50;;;;;;;4.30;2.70;;;;;;;33.68;18.80;101045.41;5076951;28;20047;-79
2022/08/25 11:09:26;;;;;;;4.05;2.78;;;;;;;33.73;18.82;101034.03;5057546;28;20471;-80
2022/08/25 11:11:59;;;;;;;4.05;2.65;;;;;;;33.80;18.58;101031.75;5071828;28;20045;-79
2022/08/25 11:14:33;;;;;;;3.45;2.80;;;;;;;33.85;18.04;101022.38;5075203;28;20044;-80
2022/08/25 11:17:06;;;;;;;4.15;2.72;;;;;;;33.92;18.34;101019.25;5086045;28;20052;-80
2022/08/25 11:19:39;;;;;;;4.00;2.85;;;;;;;33.97;18.00;101013.56;5078353;28;20134;-81
2022/08/25 11:22:14;;;;;;;3.50;2.58;;;;;;;34.05;17.85;101013.84;5082067;28;20048;-80
2022/08/25 11:25:01;;;;;;;3.70;2.70;;;;;;;34.10;18.20;101013.84;5074693;28;20040;-79
2022/08/25 11:27:37;;;;;;;3.60;2.60;;;;;;;34.14;18.10;101012.09;5066956;28;20055;-80
2022/08/25 11:30:22;;;;;;;4.25;2.60;;;;;;;34.21;18.16;101017.47;5083055;28;20510;-81
2022/08/25 11:32:54;;;;;;;3.95;2.72;;;;;;;34.24;17.97;101005.56;4970311;28;20109;-81
2022/08/25 11:35:32;;;;;;;3.83;2.80;;;;;;;34.32;17.33;101016.31;4966366;28;20442;-81
2022/08/25 11:38:17;;;;;;;3.30;2.50;;;;;;;34.37;17.33;101015.47;4993479;28;20058;-81
2022/08/25 11:41:05;;;;;;;3.53;2.40;;;;;;;34.38;17.49;101005.75;4972422;28;20050;-81
2022/08/25 11:44:06;;;;;;;3.65;2.70;;;;;;;34.43;17.08;101008.63;4983044;28;20038;-80
2022/08/25 11:46:53;;;;;;;3.45;2.90;;;;;;;34.43;17.38;101008.63;4973155;28;20039;-80
2022/08/25 11:49:45;;;;;;;3.20;2.50;;;;;;;34.45;16.77;101004.34;4975624;28;20409;-80
2022/08/25 11:52:52;;;;;;;3.17;2.40;;;;;;;34.47;16.70;100998.38;4993155;28;20058;-80
2022/08/25 11:55:29;;;;;;;3.45;2.60;;;;;;;34.50;16.42;100992.97;4987730;28;20129;-79
2022/08/25 11:58:40;;;;;;;4.20;2.50;;;;;;;34.51;16.20;100991.84;4973796;28;20051;-79
2022/08/25 12:01:28;;;;;;;3.20;2.42;;;;;;;34.55;16.21;100994.94;4962600;28;20046;-79
2022/08/25 12:04:13;;;;;;;3.53;2.53;;;;;;;34.57;16.57;100986.97;4992350;28;20046;-79
2022/08/25 12:07:16;;;;;;;3.63;2.50;;;;;;;34.59;16.22;100981.00;4990370;28;20592;-80
2022/08/25 12:10:22;;;;;;;4.50;2.70;;;;;;;34.60;16.54;100979.84;5002101;28;20049;-80